Latest Coastal Weather Observations for Port Kembla Harbour

IDN60701

Issued at 1:51 pm EST Tuesday 28 April 2015 (issued every 10 minutes, with the page automatically refreshed every 10 minutes)

About coastal observations | Map of coastal stations | Coastal observations for NSW | Marine services | Other Formats
Station Details ID: 068253 Name: PORT KEMBLA NTC AWS Lat: -34.47 Lon: 150.91 Height: 0.0 m
Data from the previous 72 hours. | See also: Recent months for locations in New South Wales
Date/Time
EST
Temp

°C
Wind Pressure Rain
since 9am
mm
Weather Cloud Vis
km
Sea
Height
m
Swell
Dir
 
Speed
knots
Gust
knots
hPa Trend Height
m
Period
s
Dir
28/01:30pm 18.0 SSE 7 13 1024.6 - - - - - - - - -
28/01:00pm 17.6 SSE 7 14 1025.0 - - - - - - - - -
28/12:30pm 17.8 SSE 7 13 1025.2 - - - - - - - - -
28/12:00pm 17.7 SSE 6 10 1025.4 - - - - - - - - -
28/11:30am 17.6 S 6 13 1025.6 - - - - - - - - -
28/11:00am 17.1 SSW 6 11 1025.9 - - - - - - - - -
28/10:30am 17.2 SW 9 16 1026.0 - - - - - - - - -
28/10:00am 16.9 SSW 8 15 1026.0 - - - - - - - - -
28/09:30am 16.4 SW 8 13 1026.0 - - - - - - - - -
28/09:00am 16.2 SW 9 14 1025.8 - - - - - - - - -
28/08:30am 15.4 WSW 8 12 1025.5 - - - - - - - - -
28/08:00am 15.2 WSW 8 11 1025.2 - - - - - - - - -
28/07:30am 14.0 WSW 7 9 1024.8 - - - - - - - - -
28/07:00am 13.4 WSW 5 6 1024.6 - - - - - - - - -
28/06:30am 13.0 WSW 6 7 1024.2 - - - - - - - - -
28/06:00am 13.3 W 7 9 1023.7 - - - - - - - - -
28/05:30am 13.4 WSW 8 9 1023.3 - - - - - - - - -
28/05:00am 13.8 WSW 8 10 1023.1 - - - - - - - - -
28/04:30am 13.8 WSW 8 9 1022.7 - - - - - - - - -
28/04:00am 13.4 WSW 6 7 1022.5 - - - - - - - - -
28/03:30am 13.7 WSW 7 8 1022.3 - - - - - - - - -
28/03:00am 14.3 WSW 7 9 1022.2 - - - - - - - - -
28/02:30am 14.3 WSW 7 8 1022.2 - - - - - - - - -
28/02:00am 14.4 WSW 7 9 1022.2 - - - - - - - - -
28/01:30am 14.5 WSW 7 8 1022.3 - - - - - - - - -
28/01:00am 14.6 WSW 6 8 1022.2 - - - - - - - - -
28/12:30am 14.5 WSW 7 9 1022.2 - - - - - - - - -
28/12:00am 14.7 WSW 6 8 1022.1 - - - - - - - - -
 
Date/Time
EST
Temp

°C
Wind Pressure Rain
since 9am
mm
Weather Cloud Vis
km
Sea
Height
m
Swell
Dir
 
Speed
knots
Gust
knots
hPa Trend Height
m
Period
s
Dir
27/11:30pm 15.1 WSW 6 8 1022.2 - - - - - - - - -
27/11:00pm 14.6 WSW 6 7 1022.2 - - - - - - - - -
27/10:30pm 14.7 WSW 7 8 1022.1 - - - - - - - - -
27/10:00pm 14.8 WSW 6 7 1021.9 - - - - - - - - -
27/09:30pm 14.8 WSW 5 6 1021.9 - - - - - - - - -
27/09:00pm 14.9 WSW 5 6 1021.7 - - - - - - - - -
27/08:30pm 15.2 WSW 5 7 1021.5 - - - - - - - - -
27/08:00pm 15.5 WSW 5 7 1021.1 - - - - - - - - -
27/07:30pm 15.2 WSW 4 6 1020.8 - - - - - - - - -
27/07:00pm 15.6 WSW 4 5 1020.5 - - - - - - - - -
27/06:30pm 15.9 W 6 7 1020.1 - - - - - - - - -
27/06:00pm 16.9 SW 5 8 1019.7 - - - - - - - - -
27/05:30pm 17.3 SSW 4 7 1019.6 - - - - - - - - -
27/05:00pm 17.5 S 4 9 1019.2 - - - - - - - - -
27/04:30pm 17.6 S 5 10 1019.1 - - - - - - - - -
27/04:00pm 17.7 S 6 13 1018.9 - - - - - - - - -
27/03:30pm 18.0 S 7 13 1018.8 - - - - - - - - -
27/03:00pm 17.9 S 6 14 1018.6 - - - - - - - - -
27/02:30pm 17.7 SSE 8 14 1018.4 - - - - - - - - -
27/02:00pm 18.0 SSE 6 15 1018.2 - - - - - - - - -
27/01:30pm 17.9 S 7 13 1018.0 - - - - - - - - -
27/01:00pm 17.9 S 7 16 1018.0 - - - - - - - - -
27/12:30pm 17.7 SSW 7 14 1018.1 - - - - - - - - -
27/12:00pm 17.8 SSW 7 11 1018.3 - - - - - - - - -
27/11:30am 17.4 SSW 8 14 1018.5 - - - - - - - - -
27/11:00am 17.0 SW 9 13 1018.5 - - - - - - - - -
27/10:30am 17.4 SW 7 10 1018.6 - - - - - - - - -
27/10:00am 16.3 WSW 9 13 1018.6 - - - - - - - - -
27/09:30am 15.9 W 9 12 1018.4 - - - - - - - - -
27/09:00am 15.2 WSW 9 12 1018.3 - - - - - - - - -
27/08:30am 14.6 WSW 11 13 1018.2 - - - - - - - - -
27/08:00am 14.0 WSW 10 13 1018.1 - - - - - - - - -
27/07:30am 13.5 WSW 10 13 1017.8 - - - - - - - - -
27/07:00am 13.1 WSW 12 15 1017.2 - - - - - - - - -
27/06:30am 13.8 WSW 11 16 1017.0 - - - - - - - - -
27/06:00am 13.5 W 9 13 1016.7 - - - - - - - - -
27/05:30am 14.0 WSW 6 11 1016.4 - - - - - - - - -
27/05:00am 14.4 WSW 6 10 1016.3 - - - - - - - - -
27/04:30am 14.2 W 6 9 1015.9 - - - - - - - - -
27/04:00am 13.9 W 5 7 1015.5 - - - - - - - - -
27/03:30am 14.2 WSW 4 6 1015.2 - - - - - - - - -
27/03:00am 13.7 SW 4 5 1015.2 - - - - - - - - -
27/02:30am 14.2 WSW 5 6 1015.3 - - - - - - - - -
27/02:00am 14.3 W 5 7 1015.4 - - - - - - - - -
27/01:30am 14.3 SW 6 10 1015.3 - - - - - - - - -
27/01:00am 14.7 SW 6 11 1015.1 - - - - - - - - -
27/12:30am 15.0 WSW 6 9 1015.0 - - - - - - - - -
27/12:00am 15.2 SW 5 7 1015.0 - - - - - - - - -
 
Date/Time
EST
Temp

°C
Wind Pressure Rain
since 9am
mm
Weather Cloud Vis
km
Sea
Height
m
Swell
Dir
 
Speed
knots
Gust
knots
hPa Trend Height
m
Period
s
Dir
26/11:30pm 15.5 SSW 6 10 1014.9 - - - - - - - - -
26/11:00pm 15.2 SW 8 13 1015.0 - - - - - - - - -
26/10:30pm 16.6 SW 9 15 1014.9 - - - - - - - - -
26/10:00pm 16.4 WSW 9 11 1014.6 - - - - - - - - -
26/09:30pm 16.6 WSW 6 10 1014.5 - - - - - - - - -
26/09:00pm 17.1 W 6 7 1014.3 - - - - - - - - -
26/08:30pm 16.6 W 6 8 1014.1 - - - - - - - - -
26/08:00pm 16.7 W 7 8 1013.9 - - - - - - - - -
26/07:30pm 16.5 W 7 9 1013.8 - - - - - - - - -
26/07:00pm 16.9 WSW 5 7 1013.6 - - - - - - - - -
26/06:30pm 17.2 WSW 5 7 1013.2 - - - - - - - - -
26/06:00pm 17.4 WSW 8 11 1012.7 - - - - - - - - -
26/05:30pm 17.4 SW 8 13 1012.1 - - - - - - - - -
26/05:00pm 17.8 SW 9 15 1011.8 - - - - - - - - -
26/04:30pm 18.3 SW 11 18 1011.0 - - - - - - - - -
26/04:00pm 18.2 SW 8 12 1010.6 - - - - - - - - -
26/03:30pm 17.3 WSW 10 15 1010.0 - - - - - - - - -
26/03:00pm 16.6 WSW 15 22 1009.9 - - - - - - - - -
26/02:30pm 16.2 SW 13 20 1009.6 - - - - - - - - -
26/02:00pm 16.8 SW 16 22 1009.2 - - - - - - - - -
26/01:48pm 16.8 SW 15 26 1009.0 - - - - - - - - -
26/01:30pm 16.6 WSW 14 22 1008.6 - - - - - - - - -
26/01:00pm 16.1 SW 13 23 1008.4 - - - - - - - - -
26/12:30pm 16.4 SW 14 21 1008.1 - - - - - - - - -
26/12:04pm 17.0 SW 15 26 1007.8 - - - - - - - - -
26/12:00pm 17.0 SW 16 26 1007.7 - - - - - - - - -
26/11:32am 17.1 SW 17 27 1007.5 - - - - - - - - -
26/11:30am 17.1 SW 17 23 1007.4 - - - - - - - - -
26/11:00am 16.6 WSW 16 25 1007.2 - - - - - - - - -
26/10:30am 15.6 WSW 13 18 1007.5 - - - - - - - - -
26/10:00am 15.6 WSW 15 22 1007.1 - - - - - - - - -
26/09:30am 15.5 WSW 15 22 1007.0 - - - - - - - - -
26/09:00am 15.1 WSW 16 23 1007.1 - - - - - - - - -
26/08:30am 14.7 WSW 14 20 1007.2 - - - - - - - - -
26/08:00am 14.2 WSW 13 19 1006.9 - - - - - - - - -
26/07:30am 13.9 WSW 12 17 1006.9 - - - - - - - - -
26/07:00am 15.0 WSW 18 24 1006.5 - - - - - - - - -
26/06:30am 15.3 WSW 16 24 1006.1 - - - - - - - - -
26/06:00am 15.4 WSW 16 22 1005.6 - - - - - - - - -
26/05:30am 15.1 WSW 14 21 1005.4 - - - - - - - - -
26/05:00am 14.9 WSW 11 16 1005.4 - - - - - - - - -
26/04:30am 14.1 WSW 11 15 1005.5 - - - - - - - - -
26/04:00am 14.0 WSW 9 12 1005.9 - - - - - - - - -
26/03:30am 14.1 W 9 11 1006.2 - - - - - - - - -
26/03:00am 14.1 WNW 7 10 1006.2 - - - - - - - - -
26/02:30am 14.5 WNW 5 8 1006.7 - - - - - - - - -
26/02:00am 13.3 WSW 5 6 1006.4 - - - - - - - - -
26/01:30am 13.9 WSW 4 5 1006.1 - - - - - - - - -
26/01:00am 14.1 WSW 6 7 1006.3 - - - - - - - - -
26/12:30am 14.2 SSW 3 5 1006.4 - - - - - - - - -
26/12:00am 14.3 WSW 6 9 1006.5 - - - - - - - - -

Other Formats:

Comma delimited format used in spreadsheet applications
http://www.bom.gov.au/fwo/IDN60701/IDN60701.95745.axf

JavaScript Object Notation format (JSON) in row-major order
http://www.bom.gov.au/fwo/IDN60701/IDN60701.95745.json